createdAt,value
2018-08-14T00:00:49.771Z,19.63
2018-08-14T00:03:20.495Z,19.77
2018-08-14T00:05:51.497Z,20.03
2018-08-14T00:08:22.118Z,23.67
2018-08-14T00:10:52.763Z,22.47
2018-08-14T00:13:23.404Z,23.30
2018-08-14T00:15:54.082Z,20.50
2018-08-14T00:18:24.667Z,20.43
2018-08-14T00:20:55.050Z,21.80
2018-08-14T00:23:25.541Z,24.67
2018-08-14T00:25:56.124Z,22.17
2018-08-14T00:28:26.774Z,20.33
2018-08-14T00:30:57.425Z,20.43
2018-08-14T00:33:28.030Z,22.80
2018-08-14T00:35:58.647Z,26.23
2018-08-14T00:38:29.494Z,25.73
2018-08-14T00:41:00.037Z,21.80
2018-08-14T00:43:30.601Z,21.53
2018-08-14T00:46:01.207Z,20.57
2018-08-14T00:48:32.165Z,22.43
2018-08-14T00:51:02.785Z,23.70
2018-08-14T00:53:33.377Z,21.20
2018-08-14T00:56:04.043Z,23.13
2018-08-14T00:58:34.931Z,19.30
2018-08-14T01:01:05.544Z,21.27
2018-08-14T01:03:36.101Z,19.00
2018-08-14T01:06:06.581Z,24.40
2018-08-14T01:08:37.037Z,24.00
2018-08-14T01:11:07.649Z,23.87
2018-08-14T01:13:38.284Z,22.63
2018-08-14T01:16:13.360Z,24.03
2018-08-14T01:18:43.953Z,21.10
2018-08-14T01:21:14.563Z,19.53
2018-08-14T01:23:45.232Z,21.60
2018-08-14T01:26:15.928Z,22.13
2018-08-14T01:28:47.255Z,25.77
2018-08-14T01:31:17.822Z,21.53
2018-08-14T01:33:48.263Z,23.03
2018-08-14T01:36:18.811Z,21.80
2018-08-14T01:38:49.399Z,22.10
2018-08-14T01:41:19.928Z,20.97
2018-08-14T01:43:50.403Z,27.10
2018-08-14T01:46:20.895Z,25.30
2018-08-14T01:48:51.352Z,24.40
2018-08-14T01:51:22.113Z,25.27
2018-08-14T01:53:52.590Z,24.47
2018-08-14T01:56:23.400Z,29.67
2018-08-14T01:58:54.039Z,24.70
2018-08-14T02:01:24.575Z,25.40
2018-08-14T02:03:55.195Z,24.80
2018-08-14T02:06:25.975Z,24.83
2018-08-14T02:08:56.724Z,22.10
2018-08-14T02:11:27.804Z,20.23
2018-08-14T02:13:58.264Z,24.00
2018-08-14T02:16:29.036Z,28.17
2018-08-14T02:18:59.609Z,22.37
2018-08-14T02:21:30.192Z,26.40
2018-08-14T02:24:00.879Z,30.40
2018-08-14T02:26:31.491Z,24.57
2018-08-14T02:29:02.148Z,40.53
2018-08-14T02:31:32.852Z,26.87
2018-08-14T02:34:03.416Z,28.13
2018-08-14T02:36:33.761Z,28.23
2018-08-14T02:39:04.297Z,26.70
2018-08-14T02:41:34.727Z,30.37
2018-08-14T02:44:05.297Z,31.43
2018-08-14T02:46:35.944Z,31.63
2018-08-14T02:49:06.512Z,30.63
2018-08-14T02:51:37.145Z,25.33
2018-08-14T02:54:07.733Z,27.53
2018-08-14T02:56:38.495Z,28.50
2018-08-14T02:59:09.012Z,31.10
2018-08-14T03:01:39.644Z,33.57
2018-08-14T03:04:10.276Z,31.20
2018-08-14T03:06:40.837Z,33.23
2018-08-14T03:09:12.176Z,30.13
2018-08-14T03:11:42.857Z,32.70
2018-08-14T03:14:13.238Z,35.47
2018-08-14T03:16:43.790Z,31.20
2018-08-14T03:19:14.363Z,30.30
2018-08-14T03:21:45.012Z,32.13
2018-08-14T03:24:15.612Z,32.47
2018-08-14T03:26:46.335Z,35.93
2018-08-14T03:29:16.697Z,37.33
2018-08-14T03:31:47.376Z,28.73
2018-08-14T03:34:17.853Z,30.80
2018-08-14T03:36:48.349Z,31.50
2018-08-14T03:39:18.806Z,29.43
2018-08-14T03:41:49.255Z,26.80
2018-08-14T03:44:19.789Z,29.13
2018-08-14T03:46:50.280Z,29.10
2018-08-14T03:49:20.847Z,28.77
2018-08-14T03:51:51.320Z,27.93
2018-08-14T03:54:21.907Z,25.77
2018-08-14T03:56:52.289Z,31.00
2018-08-14T03:59:22.667Z,30.57
2018-08-14T04:01:53.202Z,26.97
2018-08-14T04:04:23.524Z,27.83
2018-08-14T04:06:54.327Z,29.73
2018-08-14T04:09:24.825Z,28.83
2018-08-14T04:11:55.462Z,28.97
2018-08-14T04:14:26.059Z,40.33
2018-08-14T04:16:57.816Z,29.17
2018-08-14T04:19:28.121Z,32.47
2018-08-14T04:21:58.721Z,30.33
2018-08-14T04:24:29.216Z,28.07
2018-08-14T04:26:59.812Z,30.30
2018-08-14T04:29:30.288Z,29.00
2018-08-14T04:32:00.892Z,31.50
2018-08-14T04:34:31.363Z,32.80
2018-08-14T04:37:01.960Z,33.00
2018-08-14T04:39:32.524Z,29.47
2018-08-14T04:42:02.830Z,29.20
2018-08-14T04:44:33.261Z,30.53
2018-08-14T04:47:03.923Z,27.83
2018-08-14T04:49:34.419Z,28.60
2018-08-14T04:52:05.091Z,34.50
2018-08-14T04:54:35.595Z,29.50
2018-08-14T04:57:06.240Z,33.90
2018-08-14T04:59:36.795Z,26.53
2018-08-14T05:02:07.464Z,29.00
2018-08-14T05:04:38.061Z,30.97
2018-08-14T05:07:08.754Z,31.03
2018-08-14T05:09:39.331Z,32.40
2018-08-14T05:12:09.690Z,31.63
2018-08-14T05:14:40.307Z,29.00
2018-08-14T05:17:10.905Z,31.90
2018-08-14T05:19:41.349Z,33.40
2018-08-14T05:22:11.945Z,30.10
2018-08-14T05:24:42.420Z,27.20
2018-08-14T05:27:12.987Z,24.70
2018-08-14T05:29:43.496Z,27.67
2018-08-14T05:32:14.039Z,25.63
2018-08-14T05:34:44.896Z,33.27
2018-08-14T05:37:15.557Z,27.53
2018-08-14T05:39:46.141Z,24.80
2018-08-14T05:42:16.752Z,26.60
2018-08-14T05:44:47.304Z,30.03
2018-08-14T05:47:18.638Z,25.20
2018-08-14T05:49:49.119Z,26.30
2018-08-14T05:52:19.718Z,33.03
2018-08-14T05:54:50.265Z,27.43
2018-08-14T05:57:20.756Z,32.93
2018-08-14T05:59:51.434Z,30.90
2018-08-14T06:02:22.130Z,26.43
2018-08-14T06:04:52.901Z,32.83
2018-08-14T06:07:23.471Z,30.20
2018-08-14T06:09:54.080Z,26.77
2018-08-14T06:12:25.173Z,33.53
2018-08-14T06:14:55.897Z,24.10
2018-08-14T06:17:26.562Z,26.80
2018-08-14T06:19:57.234Z,30.07
2018-08-14T06:22:27.799Z,27.10
2018-08-14T06:24:58.588Z,31.03
2018-08-14T06:27:33.256Z,25.03
2018-08-14T06:30:03.898Z,30.60
2018-08-14T06:32:34.494Z,30.63
2018-08-14T06:35:05.348Z,30.23
2018-08-14T06:37:38.641Z,29.33
2018-08-14T06:40:12.962Z,31.33
2018-08-14T06:42:44.075Z,27.90
2018-08-14T06:45:16.559Z,34.83
2018-08-14T06:47:47.078Z,29.73
2018-08-14T06:50:20.115Z,29.93
2018-08-14T06:52:50.575Z,26.23
2018-08-14T06:55:21.297Z,22.83
2018-08-14T06:57:51.897Z,24.10
2018-08-14T07:00:22.483Z,23.93
2018-08-14T07:02:53.060Z,20.30
2018-08-14T07:05:23.756Z,22.57
2018-08-14T07:07:54.354Z,19.70
2018-08-14T07:10:25.027Z,23.90
2018-08-14T07:12:55.619Z,18.90
2018-08-14T07:15:26.325Z,34.77
2018-08-14T07:17:56.768Z,21.60
2018-08-14T07:20:27.261Z,22.73
2018-08-14T07:22:57.851Z,21.33
2018-08-14T07:25:28.425Z,23.30
2018-08-14T07:27:59.131Z,14.60
2018-08-14T07:30:29.927Z,19.63
2018-08-14T07:33:00.760Z,19.47
2018-08-14T07:35:31.288Z,19.20
2018-08-14T07:41:44.399Z,14.63
2018-08-14T07:44:14.888Z,15.23
2018-08-14T07:46:46.224Z,17.43
2018-08-14T07:49:17.068Z,15.13
2018-08-14T07:51:47.560Z,19.43
2018-08-14T07:54:17.953Z,18.00
2018-08-14T07:56:48.609Z,21.17
2018-08-14T07:59:19.258Z,20.43
2018-08-14T08:01:49.908Z,22.77
2018-08-14T08:04:20.457Z,24.20
2018-08-14T08:06:51.044Z,24.03
2018-08-14T08:09:21.740Z,25.57
2018-08-14T08:11:52.450Z,24.50
2018-08-14T08:14:23.051Z,21.40
2018-08-14T08:16:53.489Z,20.33
2018-08-14T08:19:23.984Z,21.73
2018-08-14T08:21:54.576Z,20.63
2018-08-14T08:24:25.130Z,18.40
2018-08-14T08:26:55.740Z,15.20
2018-08-14T08:29:26.086Z,15.50
2018-08-14T08:31:56.708Z,15.13
2018-08-14T08:34:27.262Z,17.80
2018-08-14T08:36:57.751Z,14.60
2018-08-14T08:39:28.349Z,12.70
2018-08-14T08:41:58.842Z,12.23
2018-08-14T08:44:29.380Z,15.10
2018-08-14T08:47:00.103Z,15.30
2018-08-14T08:49:30.664Z,12.77
2018-08-14T08:52:01.365Z,12.67
2018-08-14T08:54:31.964Z,12.73
2018-08-14T08:57:02.380Z,12.60
2018-08-14T08:59:32.967Z,12.03
2018-08-14T09:02:03.953Z,9.63
2018-08-14T09:04:34.440Z,11.10
2018-08-14T09:07:05.065Z,10.33
2018-08-14T09:09:35.718Z,13.70
2018-08-14T09:12:06.689Z,8.70
2018-08-14T09:14:37.234Z,16.23
2018-08-14T09:17:07.818Z,9.70
2018-08-14T09:19:38.463Z,10.00
2018-08-14T09:22:09.102Z,11.87
2018-08-14T09:24:39.891Z,11.80
2018-08-14T09:27:10.511Z,11.83
2018-08-14T09:29:41.197Z,11.80
2018-08-14T09:32:11.786Z,12.00
2018-08-14T09:34:42.470Z,12.70
2018-08-14T09:37:13.149Z,11.90
2018-08-14T09:39:43.900Z,10.00
2018-08-14T09:42:15.363Z,13.83
2018-08-14T09:44:46.013Z,12.20
2018-08-14T09:47:16.658Z,11.50
2018-08-14T09:49:47.479Z,11.87
2018-08-14T09:52:18.092Z,12.70
2018-08-14T09:54:48.661Z,14.43
2018-08-14T09:57:19.358Z,11.60
2018-08-14T09:59:49.943Z,13.03
2018-08-14T10:02:57.987Z,9.13
2018-08-14T10:06:16.522Z,11.13
2018-08-14T10:09:11.312Z,8.10
2018-08-14T10:12:24.664Z,7.83
2018-08-14T10:15:09.157Z,8.77
2018-08-14T10:18:01.561Z,10.30
2018-08-14T10:21:14.410Z,7.80
2018-08-14T10:23:53.582Z,13.00
2018-08-14T10:27:03.386Z,10.00
2018-08-14T10:29:50.946Z,6.50
2018-08-14T10:32:21.846Z,5.07
2018-08-14T10:34:52.537Z,11.90
2018-08-14T10:37:23.090Z,6.00
2018-08-14T10:39:53.852Z,10.07
2018-08-14T10:42:29.047Z,6.90
2018-08-14T10:45:00.535Z,6.20
2018-08-14T10:47:31.100Z,7.23
2018-08-14T10:50:01.691Z,6.83
2018-08-14T10:52:32.233Z,5.43
2018-08-14T10:55:03.016Z,5.47
2018-08-14T10:57:33.702Z,8.30
2018-08-14T11:00:04.366Z,5.77
2018-08-14T11:02:35.097Z,6.00
2018-08-14T11:05:07.138Z,4.70
2018-08-14T11:07:37.552Z,10.03
2018-08-14T11:10:14.638Z,10.57
2018-08-14T11:12:45.370Z,8.83
2018-08-14T11:15:15.988Z,4.43
2018-08-14T11:17:46.592Z,4.60
2018-08-14T11:20:22.012Z,9.17
2018-08-14T11:22:52.575Z,9.27
2018-08-14T11:25:23.221Z,5.33
2018-08-14T11:27:53.824Z,6.40
2018-08-14T11:30:26.496Z,1.57
2018-08-14T11:32:57.225Z,2.23
2018-08-14T11:36:32.971Z,4.83
2018-08-14T11:39:04.005Z,1.87
2018-08-14T11:41:35.086Z,4.40
2018-08-14T11:44:05.889Z,3.27
2018-08-14T11:46:36.632Z,2.40
2018-08-14T11:49:07.300Z,2.73
2018-08-14T11:51:38.029Z,3.00
2018-08-14T11:54:08.840Z,4.93
2018-08-14T11:56:39.517Z,2.40
2018-08-14T11:59:10.284Z,4.00
2018-08-14T12:01:40.919Z,1.70
2018-08-14T12:04:12.062Z,3.17
2018-08-14T12:06:42.533Z,3.70
2018-08-14T12:09:13.200Z,3.77
2018-08-14T12:11:43.831Z,7.00
2018-08-14T12:14:14.706Z,5.37
2018-08-14T12:16:45.357Z,2.30
2018-08-14T12:19:18.027Z,2.63
2018-08-14T12:21:48.546Z,4.27
2018-08-14T12:24:18.990Z,6.53
2018-08-14T12:26:49.592Z,2.93
2018-08-14T12:29:19.973Z,3.83
2018-08-14T12:31:50.581Z,3.33
2018-08-14T12:34:21.135Z,11.00
2018-08-14T12:36:52.557Z,4.97
2018-08-14T12:39:23.271Z,3.90
2018-08-14T12:41:53.866Z,7.93
2018-08-14T12:44:24.577Z,2.87
2018-08-14T12:46:55.931Z,3.97
2018-08-14T12:49:26.638Z,7.40
2018-08-14T12:51:57.394Z,6.40
2018-08-14T12:54:27.778Z,4.30
2018-08-14T12:56:58.363Z,14.07
2018-08-14T12:59:28.857Z,4.50
2018-08-14T13:01:59.530Z,3.87
2018-08-14T13:04:29.969Z,8.83
2018-08-14T13:07:00.587Z,7.07
2018-08-14T13:09:31.158Z,8.30
2018-08-14T13:12:01.737Z,3.40
2018-08-14T13:14:32.411Z,3.37
2018-08-14T13:17:03.221Z,7.20
2018-08-14T13:19:33.819Z,3.97
2018-08-14T13:22:04.501Z,6.93
2018-08-14T13:24:35.123Z,2.13
2018-08-14T13:27:05.810Z,4.67
2018-08-14T13:29:39.678Z,3.50
2018-08-14T13:32:10.247Z,2.03
2018-08-14T13:34:40.668Z,6.50
2018-08-14T13:37:11.402Z,3.10
2018-08-14T13:39:42.602Z,3.63
2018-08-14T13:42:13.269Z,5.90
2018-08-14T13:44:44.012Z,4.37
2018-08-14T13:47:15.106Z,4.57
2018-08-14T13:49:45.946Z,1.47
2018-08-14T13:52:16.695Z,5.03
2018-08-14T13:54:49.445Z,2.83
2018-08-14T13:57:20.138Z,3.60
2018-08-14T13:59:51.065Z,1.63
2018-08-14T14:02:21.774Z,1.80
2018-08-14T14:04:52.374Z,3.83
2018-08-14T14:07:22.911Z,1.30
2018-08-14T14:09:53.479Z,1.53
2018-08-14T14:12:24.090Z,2.60
2018-08-14T14:14:54.541Z,1.77
2018-08-14T14:17:25.187Z,2.60
2018-08-14T14:19:55.904Z,3.33
2018-08-14T14:22:26.648Z,2.00
2018-08-14T14:24:57.332Z,5.07
2018-08-14T14:27:27.782Z,7.53
2018-08-14T14:29:58.432Z,3.90
2018-08-14T14:32:28.992Z,3.60
2018-08-14T14:34:59.724Z,3.27
2018-08-14T14:37:30.417Z,1.80
2018-08-14T14:40:01.249Z,4.00
2018-08-14T14:42:31.849Z,2.80
2018-08-14T14:45:02.587Z,3.90
2018-08-14T14:47:33.236Z,2.20
2018-08-14T14:50:04.028Z,7.00
2018-08-14T14:52:34.543Z,2.97
2018-08-14T14:55:05.419Z,2.70
2018-08-14T14:57:36.047Z,3.30
2018-08-14T15:00:08.292Z,5.83
2018-08-14T15:02:38.973Z,9.53
2018-08-14T15:05:10.498Z,9.40
2018-08-14T15:07:41.068Z,3.10
2018-08-14T15:10:11.997Z,2.30
2018-08-14T15:12:43.135Z,2.70
2018-08-14T15:15:13.677Z,3.43
2018-08-14T15:17:44.873Z,3.23
2018-08-14T15:20:21.625Z,5.53
2018-08-14T15:22:53.756Z,8.67
2018-08-14T15:25:25.372Z,10.93
2018-08-14T15:29:10.210Z,8.70
2018-08-14T15:31:43.318Z,5.93
2018-08-14T15:34:17.308Z,5.17
2018-08-14T15:36:50.409Z,4.07
2018-08-14T15:39:21.976Z,3.53
2018-08-14T15:41:52.830Z,9.40
2018-08-14T15:44:23.535Z,5.57
2018-08-14T15:46:54.527Z,6.30
2018-08-14T15:49:25.237Z,6.17
2018-08-14T15:51:56.548Z,5.03
2018-08-14T15:54:27.189Z,7.70
2018-08-14T15:56:57.768Z,5.07
2018-08-14T15:59:28.353Z,5.67
2018-08-14T16:01:59.240Z,6.60
2018-08-14T16:04:29.712Z,12.37
2018-08-14T16:07:00.098Z,4.27
2018-08-14T16:09:30.669Z,10.73
2018-08-14T16:12:01.266Z,6.20
2018-08-14T16:14:31.826Z,6.63
2018-08-14T16:17:02.495Z,8.83
2018-08-14T16:19:33.103Z,6.73
2018-08-14T16:22:03.808Z,7.13
2018-08-14T16:24:34.472Z,7.53
2018-08-14T16:27:05.286Z,9.37
2018-08-14T16:29:35.838Z,8.70
2018-08-14T16:32:06.416Z,9.17
2018-08-14T16:34:37.024Z,8.00
2018-08-14T16:37:07.828Z,5.00
2018-08-14T16:39:38.408Z,8.43
2018-08-14T16:42:09.145Z,4.00
2018-08-14T16:44:39.783Z,6.10
2018-08-14T16:47:10.496Z,8.60
2018-08-14T16:49:41.148Z,9.00
2018-08-14T16:52:11.771Z,13.07
2018-08-14T16:54:42.558Z,6.30
2018-08-14T16:57:13.213Z,10.83
2018-08-14T16:59:43.919Z,12.73
2018-08-14T17:02:14.627Z,9.33
2018-08-14T17:04:45.460Z,15.77
2018-08-14T17:07:16.149Z,41.33
2018-08-14T17:09:46.637Z,27.80
2018-08-14T17:12:17.239Z,36.13
2018-08-14T17:14:47.768Z,26.30
2018-08-14T17:17:18.265Z,9.83
2018-08-14T17:19:46.486Z,17.90
2018-08-14T17:22:17.098Z,42.93
2018-08-14T17:24:47.802Z,60.87
2018-08-14T17:27:18.396Z,28.00
2018-08-14T17:29:48.834Z,33.67
2018-08-14T17:32:19.557Z,50.77
2018-08-14T17:34:50.155Z,12.60
2018-08-14T17:37:20.791Z,55.53
2018-08-14T17:39:51.485Z,31.67
2018-08-14T17:42:22.090Z,31.97
2018-08-14T17:44:52.707Z,11.87
2018-08-14T17:47:23.455Z,2.93
2018-08-14T17:49:54.038Z,35.33
2018-08-14T17:52:24.815Z,44.10
2018-08-14T17:54:55.422Z,7.67
2018-08-14T17:57:26.217Z,62.87
2018-08-14T17:59:56.774Z,9.77
2018-08-14T18:02:27.736Z,46.43
2018-08-14T18:04:58.456Z,56.80
2018-08-14T18:07:29.191Z,29.20
2018-08-14T18:09:59.753Z,14.63
2018-08-14T18:12:30.454Z,28.83
2018-08-14T18:15:01.097Z,44.97
2018-08-14T18:17:31.884Z,43.57
2018-08-14T18:20:02.556Z,13.23
2018-08-14T18:22:33.176Z,64.13
2018-08-14T18:25:03.809Z,10.47
2018-08-14T18:27:34.478Z,9.17
2018-08-14T18:30:05.512Z,6.93
2018-08-14T18:32:36.309Z,33.43
2018-08-14T18:35:07.274Z,20.30
2018-08-14T18:37:37.983Z,19.07
2018-08-14T18:40:16.150Z,8.00
2018-08-14T18:42:47.280Z,29.07
2018-08-14T18:45:19.552Z,10.80
2018-08-14T18:47:50.362Z,9.73
2018-08-14T18:50:21.010Z,2.80
2018-08-14T18:52:51.521Z,34.20
2018-08-14T18:55:21.903Z,4.35
2018-08-14T18:57:52.482Z,8.33
2018-08-14T19:00:24.296Z,8.07
2018-08-14T19:02:56.107Z,4.97
2018-08-14T19:05:26.736Z,2.83
2018-08-14T19:07:57.435Z,5.13
2018-08-14T19:10:28.231Z,10.13
2018-08-14T19:12:58.910Z,5.83
2018-08-14T19:15:34.341Z,2.30
2018-08-14T19:18:05.194Z,7.70
2018-08-14T19:20:35.753Z,5.63
2018-08-14T19:23:06.441Z,5.20
2018-08-14T19:25:37.007Z,11.73
2018-08-14T19:28:07.841Z,8.00
2018-08-14T19:30:38.421Z,5.30
2018-08-14T19:33:09.130Z,4.00
2018-08-14T19:35:39.750Z,7.00
2018-08-14T19:38:10.437Z,2.17
2018-08-14T19:40:40.996Z,6.00
2018-08-14T19:43:11.721Z,4.93
2018-08-14T19:45:42.377Z,6.20
2018-08-14T19:48:12.984Z,3.97
2018-08-14T19:50:43.550Z,9.73
2018-08-14T19:53:14.269Z,4.53
2018-08-14T19:55:44.835Z,3.80
2018-08-14T19:58:15.768Z,3.77
2018-08-14T20:00:46.395Z,8.87
2018-08-14T20:03:17.099Z,5.00
2018-08-14T20:05:47.676Z,8.03
2018-08-14T20:08:18.425Z,7.17
2018-08-14T20:10:49.151Z,6.20
2018-08-14T20:13:19.938Z,5.20
2018-08-14T20:15:55.386Z,7.93
2018-08-14T20:18:25.986Z,10.00
2018-08-14T20:20:56.599Z,6.00
2018-08-14T20:23:27.296Z,2.83
2018-08-14T20:25:58.044Z,4.10
2018-08-14T20:28:28.592Z,3.63
2018-08-14T20:30:59.202Z,10.37
2018-08-14T20:33:29.872Z,4.40
2018-08-14T20:36:00.716Z,10.93
2018-08-14T20:38:31.306Z,4.20
2018-08-14T20:41:01.998Z,4.80
2018-08-14T20:43:32.532Z,7.83
2018-08-14T20:46:03.055Z,9.40
2018-08-14T20:48:33.603Z,4.83
2018-08-14T20:51:04.214Z,7.57
2018-08-14T20:53:34.731Z,3.97
2018-08-14T20:56:05.040Z,11.90
2018-08-14T20:58:35.217Z,5.70
2018-08-14T21:01:05.487Z,19.27
2018-08-14T21:03:36.061Z,3.80
2018-08-14T21:06:06.645Z,4.87
2018-08-14T21:08:37.048Z,9.80
2018-08-14T21:11:07.613Z,14.17
2018-08-14T21:13:38.302Z,7.43
2018-08-14T21:16:14.038Z,13.73
2018-08-14T21:18:44.580Z,8.80
2018-08-14T21:21:15.201Z,2.40
2018-08-14T21:23:45.796Z,9.23
2018-08-14T21:26:16.441Z,6.93
2018-08-14T21:28:47.188Z,2.80
2018-08-14T21:31:17.504Z,3.40
2018-08-14T21:33:48.317Z,11.47
2018-08-14T21:36:18.940Z,2.03
2018-08-14T21:38:49.369Z,4.10
2018-08-14T21:41:19.938Z,2.03
2018-08-14T21:43:50.458Z,7.20
2018-08-14T21:46:21.118Z,10.27
2018-08-14T21:48:51.561Z,4.50
2018-08-14T21:51:22.626Z,7.20
2018-08-14T21:53:52.941Z,4.60
2018-08-14T21:56:23.665Z,4.57
2018-08-14T21:58:54.237Z,6.33
2018-08-14T22:01:24.848Z,3.60
2018-08-14T22:03:55.417Z,4.33
2018-08-14T22:06:26.109Z,9.80
2018-08-14T22:08:56.688Z,3.50
2018-08-14T22:11:27.479Z,4.30
2018-08-14T22:13:58.064Z,8.67
2018-08-14T22:16:28.802Z,6.53
2018-08-14T22:18:59.233Z,6.50
2018-08-14T22:21:29.951Z,7.73
2018-08-14T22:24:00.517Z,7.27
2018-08-14T22:26:31.276Z,8.17
2018-08-14T22:29:01.861Z,3.93
2018-08-14T22:31:32.557Z,4.63
2018-08-14T22:34:03.128Z,11.93
2018-08-14T22:36:33.620Z,2.70
2018-08-14T22:39:04.280Z,10.80
2018-08-14T22:41:34.777Z,3.43
2018-08-14T22:44:05.334Z,5.00
2018-08-14T22:46:35.840Z,6.10
2018-08-14T22:49:06.402Z,10.20
2018-08-14T22:51:37.046Z,7.33
2018-08-14T22:54:07.710Z,8.90
2018-08-14T22:56:38.388Z,4.67
2018-08-14T22:59:08.970Z,12.03
2018-08-14T23:01:39.620Z,7.20
2018-08-14T23:04:10.312Z,6.60
2018-08-14T23:06:40.898Z,8.00
2018-08-14T23:09:11.576Z,4.17
2018-08-14T23:11:42.066Z,7.60
2018-08-14T23:14:12.523Z,5.63
2018-08-14T23:16:43.060Z,8.57
2018-08-14T23:19:13.553Z,2.87
2018-08-14T23:21:44.121Z,8.07
2018-08-14T23:24:14.603Z,6.53
2018-08-14T23:26:45.181Z,4.00
2018-08-14T23:29:15.760Z,5.93
2018-08-14T23:31:46.264Z,7.23
2018-08-14T23:34:16.939Z,8.53
2018-08-14T23:36:47.491Z,4.27
2018-08-14T23:39:18.019Z,2.80
2018-08-14T23:41:48.522Z,5.10
2018-08-14T23:44:19.092Z,4.87
2018-08-14T23:46:49.539Z,6.57
2018-08-14T23:49:20.111Z,4.50
2018-08-14T23:51:50.580Z,7.67
2018-08-14T23:54:21.264Z,5.60
2018-08-14T23:56:51.673Z,8.73
2018-08-14T23:59:22.266Z,7.80
